Flight Track Log - Related Links

Times and Time Zones

All times are in EST time to prevent confusion due to time zone crossing. See the N798SR flight status page for this flight to view local times or setup timezone preferences in your user account.

Time Position Orientation Groundspeed Altitude Reporting Facility
EST Latitude Longitude Course Direction KTS MPH feet Rate Location/Type
Wed 11:12:39 AM 26.7994 -81.8947 355° North 163 188 6,100  Level Miami Center
Wed 11:13:39 AM 26.8411 -81.8989 355° North 168 193 6,100  Level Miami Center
Wed 11:14:39 AM 26.8911 -81.9033 355° North 168 193 6,100 -50 Level Miami Center
Wed 11:15:39 AM 26.9367 -81.9100 353° North 163 188 6,000 -50 Descending Miami Center
Wed 11:16:39 AM 26.9806 -81.9142 355° North 158 182 6,000  Level Miami Center
Wed 11:17:39 AM 27.0219 -81.9183 355° North 158 182 6,000  Level Miami Center
Wed 11:18:39 AM 27.0678 -81.9228 355° North 158 182 6,000  Level Miami Center
Wed 11:19:39 AM 27.1114 -81.9269 355° North 158 182 6,000  Level Miami Center
Wed 11:20:39 AM 27.1572 -81.9311 355° North 158 182 6,000  Level Miami Center
Wed 11:21:39 AM 27.2008 -81.9356 355° North 158 182 6,000  Level Miami Center
Wed 11:22:39 AM 27.2447 -81.9397 355° North 158 182 6,000 50 Level Miami Center
Wed 11:23:39 AM 27.2903 -81.9442 355° North 158 182 6,100 50 Climbing Miami Center
Wed 11:24:39 AM 27.3342 -81.9483 355° North 158 182 6,100  Level Miami Center
Wed 11:25:39 AM 27.3778 -81.9525 355° North 158 182 6,100  Level Miami Center
Wed 11:26:39 AM 27.4194 -81.9569 355° North 158 182 6,100  Level Miami Center
Wed 11:27:39 AM 27.4650 -81.9611 355° North 153 176 6,100  Level Miami Center
Wed 11:28:39 AM 27.5067 -81.9678 352° North 153 176 6,100  Level Miami Center
Wed 11:29:39 AM 27.5525 -81.9675 360° North 154 177 6,100  Level Miami Center
Wed 11:30:39 AM 27.5961 -81.9717 355° North 154 177 6,100  Level Miami Center
Wed 11:31:39 AM 27.6397 -81.9783 353° North 154 177 6,100  Level Miami Center
Wed 11:32:39 AM 27.6750 -81.9822 354° North 154 177 6,100  Level Miami Center
Wed 11:33:39 AM 27.7189 -81.9867 355° North 154 177 6,100  Level Miami Center
Wed 11:34:39 AM 27.7708 -81.9911 356° North 159 183 6,100  Level Miami Center
Wed 11:35:39 AM 27.8164 -81.9981 352° North 159 183 6,100  Level Miami Center
Wed 11:36:39 AM 27.8581 -82.0022 355° North 159 183 6,100  Level Miami Center
Wed 11:37:39 AM 27.9017 -82.0067 355° North 159 183 6,100  Level Miami Center
Wed 11:38:39 AM 27.9433 -82.0108 355° North 159 183 6,100  Level Miami Center
Wed 11:39:49 AM 28.0000 -82.0167 355° North 156 180 6,100  Level Tampa TRACON
Wed 11:40:55 AM 28.0333 -82.0500 319° Northwest 159 183 6,100  Level Tampa TRACON
Wed 11:42:01 AM 28.0833 -82.0667 344° North 161 185 6,100  Level Tampa TRACON
Wed 11:42:55 AM 28.1167 -82.1000 319° Northwest 160 184 6,100  Level Tampa TRACON
Wed 11:43:49 AM 28.1500 -82.1167 336° Northwest 157 181 6,100  Level Tampa TRACON
Wed 11:44:49 AM 28.1833 -82.1500 319° Northwest 158 182 6,100  Level Tampa TRACON
Wed 11:45:49 AM 28.2333 -82.1667 344° North 160 184 6,100  Level Tampa TRACON
Wed 11:46:49 AM 28.2667 -82.1833 336° Northwest 158 182 6,100  Level Tampa TRACON
Wed 11:47:49 AM 28.3000 -82.2167 319° Northwest 160 184 6,100  Level Tampa TRACON
Wed 11:48:49 AM 28.3333 -82.2333 336° Northwest 162 186 6,100  Level Tampa TRACON
Wed 11:49:50 AM 28.3833 -82.2667 330° Northwest 158 182 6,100  Level Tampa TRACON
Wed 11:50:49 AM 28.4167 -82.2833 336° Northwest 157 181 6,100  Level Tampa TRACON
Wed 11:51:49 AM 28.4500 -82.3167 319° Northwest 156 180 6,100 71 Level Tampa TRACON
Wed 11:53:37 AM 28.5161 -82.3517 335° Northwest 155 178 6,300 37 Climbing Jacksonville Center
Wed 11:54:31 AM 28.5558 -82.3750 333° Northwest 156 180 6,200 -52 Descending Jacksonville Center
Wed 11:55:32 AM 28.5914 -82.3983 330° Northwest 155 178 6,200  Level Jacksonville Center
Wed 11:56:27 AM 28.6311 -82.4242 330° Northwest 157 181 6,200  Level Jacksonville Center
Wed 11:57:28 AM 28.6667 -82.4478 330° Northwest 153 176 6,200  Level Jacksonville Center
Wed 11:58:28 AM 28.7044 -82.4736 329° Northwest 155 178 6,200  Level Jacksonville Center
Wed 11:59:29 AM 28.7461 -82.4972 334° Northwest 157 181 6,200  Level Jacksonville Center
Wed 12:00:36 PM 28.7714 -82.5372 306° West 162 186 6,200  Level Jacksonville Center
Wed 12:01:31 PM 28.7986 -82.5775 308° West 163 188 6,200  Level Jacksonville Center
Wed 12:02:32 PM 28.8258 -82.6153 309° West 163 188 6,200 49 Level Jacksonville Center
Wed 12:03:33 PM 28.8572 -82.6556 312° West 159 183 6,300 98 Climbing Jacksonville Center

Login

Don't have an account? Register now (free) for customized features, flight alerts, and more!